createdAt,value
2022-10-26T00:00:27.381Z,97858.69
2022-10-26T00:03:29.415Z,97857.63
2022-10-26T00:06:36.474Z,97853.66
2022-10-26T00:09:38.519Z,97847.78
2022-10-26T00:12:40.667Z,97835.84
2022-10-26T00:15:42.906Z,97821.75
2022-10-26T00:18:45.087Z,97819.38
2022-10-26T00:21:47.179Z,97815.38
2022-10-26T00:24:49.340Z,97815.13
2022-10-26T00:27:51.612Z,97808.25
2022-10-26T00:30:54.027Z,97804.75
2022-10-26T00:33:56.423Z,97797.06
2022-10-26T00:36:58.579Z,97782.72
2022-10-26T00:40:00.679Z,97777.94
2022-10-26T00:43:02.799Z,97784.31
2022-10-26T00:46:07.606Z,97779.28
2022-10-26T00:49:14.181Z,97776.34
2022-10-26T00:52:16.318Z,97774.22
2022-10-26T00:55:21.471Z,97777.94
2022-10-26T00:58:23.617Z,97767.84
2022-10-26T01:01:25.813Z,97771.31
2022-10-26T01:04:27.874Z,97762.28
2022-10-26T01:07:29.962Z,97753.00
2022-10-26T01:10:32.063Z,97749.03
2022-10-26T01:13:35.906Z,97758.59
2022-10-26T01:16:57.500Z,97746.38
2022-10-26T01:20:21.069Z,97733.63
2022-10-26T01:23:28.700Z,97728.31
2022-10-26T01:27:01.710Z,97729.91
2022-10-26T01:30:31.450Z,97714.22
2022-10-26T01:33:47.002Z,97713.72
2022-10-26T01:36:56.328Z,97711.03
2022-10-26T01:40:06.417Z,97710.25
2022-10-26T01:43:09.629Z,97711.06
2022-10-26T01:46:12.038Z,97691.69
2022-10-26T01:49:15.498Z,97690.63
2022-10-26T01:52:19.553Z,97677.34
2022-10-26T01:55:52.394Z,97668.03
2022-10-26T01:59:16.222Z,97663.53
2022-10-26T02:02:52.827Z,97668.56
2022-10-26T02:06:17.292Z,97669.34
2022-10-26T02:09:45.258Z,97655.56
2022-10-26T02:13:32.671Z,97646.03
2022-10-26T02:16:58.152Z,97642.88
2022-10-26T02:20:05.840Z,97646.03
2022-10-26T02:23:07.890Z,97642.22
2022-10-26T02:26:10.694Z,97639.63
2022-10-26T02:29:18.011Z,97637.28
2022-10-26T02:32:20.346Z,97640.16
2022-10-26T02:35:31.001Z,97631.66
2022-10-26T02:38:33.036Z,97627.13
2022-10-26T02:41:35.085Z,97634.88
2022-10-26T02:44:50.338Z,97624.41
2022-10-26T02:47:52.652Z,97620.25
2022-10-26T02:51:10.345Z,97614.66
2022-10-26T02:54:56.942Z,97597.38
2022-10-26T02:58:01.909Z,97603.50
2022-10-26T03:01:04.087Z,97597.16
2022-10-26T03:04:06.219Z,97590.25
2022-10-26T03:07:09.484Z,97584.94
2022-10-26T03:10:11.761Z,97591.59
2022-10-26T03:13:13.934Z,97591.31
2022-10-26T03:16:15.964Z,97583.84
2022-10-26T03:19:18.017Z,97583.50
2022-10-26T03:22:20.062Z,97570.22
2022-10-26T03:25:22.087Z,97556.03
2022-10-26T03:28:24.155Z,97556.91
2022-10-26T03:31:26.209Z,97561.50
2022-10-26T03:34:28.256Z,97547.59
2022-10-26T03:37:30.283Z,97530.94
2022-10-26T03:40:32.362Z,97527.47
2022-10-26T03:43:34.471Z,97522.38
2022-10-26T03:46:36.507Z,97523.97
2022-10-26T03:49:38.531Z,97523.25
2022-10-26T03:52:40.869Z,97521.09
2022-10-26T03:55:45.823Z,97511.75
2022-10-26T03:58:47.847Z,97503.25
2022-10-26T04:01:52.745Z,97504.63
2022-10-26T04:04:57.414Z,97498.28
2022-10-26T04:08:00.691Z,97492.16
2022-10-26T04:11:04.609Z,97494.03
2022-10-26T04:14:06.953Z,97482.56
2022-10-26T04:17:08.992Z,97487.03
2022-10-26T04:20:11.287Z,97485.69
2022-10-26T04:23:15.243Z,97478.00
2022-10-26T04:26:17.349Z,97474.53
2022-10-26T04:29:19.375Z,97467.59
2022-10-26T04:32:21.518Z,97470.06
2022-10-26T04:35:23.558Z,97465.19
2022-10-26T04:38:25.622Z,97459.22
2022-10-26T04:41:27.669Z,97459.72
2022-10-26T04:44:29.705Z,97467.31
2022-10-26T04:47:32.271Z,97456.19
2022-10-26T04:50:34.723Z,97452.69
2022-10-26T04:53:38.366Z,97455.28
2022-10-26T04:56:40.574Z,97458.31
2022-10-26T04:59:42.680Z,97461.72
2022-10-26T05:02:44.729Z,97447.25
2022-10-26T05:05:47.867Z,97451.09
2022-10-26T05:08:49.973Z,97446.47
2022-10-26T05:11:51.997Z,97440.56
2022-10-26T05:14:59.001Z,97440.00
2022-10-26T05:18:03.529Z,97438.69
2022-10-26T05:21:05.758Z,97437.09
2022-10-26T05:24:10.184Z,97435.81
2022-10-26T05:27:14.479Z,97427.69
2022-10-26T05:30:16.704Z,97439.28
2022-10-26T05:33:18.805Z,97438.69
2022-10-26T05:36:20.999Z,97425.19
2022-10-26T05:39:23.070Z,97423.53
2022-10-26T05:42:25.536Z,97429.59
2022-10-26T05:45:27.955Z,97418.34
2022-10-26T05:48:30.030Z,97419.88
2022-10-26T05:51:34.559Z,97419.41
2022-10-26T05:54:36.727Z,97414.56
2022-10-26T05:57:39.348Z,97403.69
2022-10-26T06:01:08.001Z,97407.41
2022-10-26T06:04:22.642Z,97402.09
2022-10-26T06:07:25.178Z,97402.09
2022-10-26T06:10:28.114Z,97410.72
2022-10-26T06:13:30.895Z,97409.06
2022-10-26T06:16:42.860Z,97411.41
2022-10-26T06:19:57.357Z,97409.84
2022-10-26T06:23:19.241Z,97412.84
2022-10-26T06:26:52.551Z,97407.41
2022-10-26T06:30:14.833Z,97417.22
2022-10-26T06:33:28.520Z,97405.13
2022-10-26T06:36:31.820Z,97402.69
2022-10-26T06:39:37.497Z,97405.91
2022-10-26T06:42:39.853Z,97409.31
2022-10-26T06:45:41.928Z,97401.13
2022-10-26T06:49:22.254Z,97401.19
2022-10-26T06:52:38.776Z,97384.56
2022-10-26T06:55:45.210Z,97381.47
2022-10-26T06:58:47.353Z,97386.03
2022-10-26T07:01:49.458Z,97396.75
2022-10-26T07:04:51.597Z,97403.84
2022-10-26T07:07:53.779Z,97405.50
2022-10-26T07:10:55.928Z,97420.22
2022-10-26T07:13:57.956Z,97417.44
2022-10-26T07:17:00.100Z,97418.06
2022-10-26T07:20:02.118Z,97428.53
2022-10-26T07:23:06.904Z,97439.19
2022-10-26T07:26:08.940Z,97425.53
2022-10-26T07:29:11.002Z,97436.69
2022-10-26T07:32:13.029Z,97432.53
2022-10-26T07:35:15.171Z,97431.25
2022-10-26T07:38:17.222Z,97413.19
2022-10-26T07:41:19.439Z,97399.63
2022-10-26T07:44:21.519Z,97409.81
2022-10-26T07:47:23.583Z,97403.53
2022-10-26T07:50:25.794Z,97398.38
2022-10-26T07:53:28.139Z,97417.00
2022-10-26T07:56:30.343Z,97414.84
2022-10-26T07:59:32.503Z,97419.53
2022-10-26T08:02:34.706Z,97425.78
2022-10-26T08:05:36.746Z,97426.56
2022-10-26T08:08:40.651Z,97422.31
2022-10-26T08:11:45.448Z,97394.38
2022-10-26T08:14:48.579Z,97408.88
2022-10-26T08:17:50.846Z,97406.56
2022-10-26T08:20:53.312Z,97409.22
2022-10-26T08:23:55.478Z,97425.94
2022-10-26T08:26:57.545Z,97417.44
2022-10-26T08:29:59.591Z,97431.53
2022-10-26T08:33:06.657Z,97434.66
2022-10-26T08:36:08.874Z,97438.16
2022-10-26T08:39:10.920Z,97434.06
2022-10-26T08:42:37.600Z,97446.47
2022-10-26T08:45:41.440Z,97434.56
2022-10-26T08:48:52.895Z,97439.06
2022-10-26T08:51:58.123Z,97444.28
2022-10-26T08:55:00.183Z,97447.31
2022-10-26T08:58:02.265Z,97457.13
2022-10-26T09:01:05.474Z,97467.56
2022-10-26T09:04:13.371Z,97474.56
2022-10-26T09:07:36.651Z,97455.56
2022-10-26T09:10:57.618Z,97463.84
2022-10-26T09:14:40.674Z,97484.50
2022-10-26T09:18:19.606Z,97493.81
2022-10-26T09:21:43.638Z,97484.13
2022-10-26T09:24:53.363Z,97492.78
2022-10-26T09:28:01.453Z,97484.72
2022-10-26T09:31:04.207Z,97501.66
2022-10-26T09:34:06.635Z,97496.34
2022-10-26T09:37:38.423Z,97498.16
2022-10-26T09:41:08.759Z,97501.72
2022-10-26T09:44:55.085Z,97504.91
2022-10-26T09:48:03.970Z,97513.69
2022-10-26T09:51:08.665Z,97504.91
2022-10-26T09:54:18.925Z,97513.53
2022-10-26T09:57:21.017Z,97541.03
2022-10-26T10:00:25.189Z,97537.84
2022-10-26T10:03:29.607Z,97534.59
2022-10-26T10:06:31.671Z,97540.72
2022-10-26T10:09:33.701Z,97539.34
2022-10-26T10:12:35.771Z,97544.88
2022-10-26T10:15:37.823Z,97557.44
2022-10-26T10:18:41.425Z,97554.63
2022-10-26T10:21:49.219Z,97563.94
2022-10-26T10:24:55.837Z,97571.22
2022-10-26T10:27:57.869Z,97577.13
2022-10-26T10:31:03.355Z,97565.75
2022-10-26T10:34:16.850Z,97576.19
2022-10-26T10:37:44.326Z,97568.34
2022-10-26T10:40:59.708Z,97579.75
2022-10-26T10:44:23.850Z,97589.78
2022-10-26T10:47:34.092Z,97587.47
2022-10-26T10:50:36.539Z,97588.38
2022-10-26T10:53:44.877Z,97582.19
2022-10-26T10:57:07.794Z,97592.38
2022-10-26T11:00:10.571Z,97575.44
2022-10-26T11:03:38.266Z,97587.03
2022-10-26T11:06:40.291Z,97608.91
2022-10-26T11:09:43.626Z,97600.03
2022-10-26T11:12:59.937Z,97598.53
2022-10-26T11:16:11.945Z,97613.75
2022-10-26T11:19:24.452Z,97599.19
2022-10-26T11:22:37.339Z,97607.44
2022-10-26T11:25:50.226Z,97613.66
2022-10-26T11:29:04.924Z,97616.94
2022-10-26T11:32:40.249Z,97622.06
2022-10-26T11:35:55.157Z,97624.03
2022-10-26T11:39:44.294Z,97631.00
2022-10-26T11:43:18.085Z,97627.88
2022-10-26T11:46:50.447Z,97636.63
2022-10-26T11:50:12.191Z,97637.78
2022-10-26T11:53:31.989Z,97635.56
2022-10-26T11:56:44.308Z,97659.56
2022-10-26T11:59:50.990Z,97651.66
2022-10-26T12:03:08.644Z,97671.00
2022-10-26T12:06:10.678Z,97675.56
2022-10-26T12:09:26.552Z,97709.94
2022-10-26T12:13:08.454Z,97651.69
2022-10-26T12:17:06.578Z,97693.16
2022-10-26T12:20:32.650Z,97693.13
2022-10-26T12:24:02.418Z,97690.75
2022-10-26T12:27:05.847Z,97691.44
2022-10-26T12:30:17.604Z,97712.81
2022-10-26T12:33:29.895Z,97694.84
2022-10-26T12:36:56.616Z,97686.66
2022-10-26T12:40:32.722Z,97702.00
2022-10-26T12:43:39.465Z,97706.91
2022-10-26T12:46:42.123Z,97707.41
2022-10-26T12:50:07.232Z,97722.97
2022-10-26T12:53:14.049Z,97729.63
2022-10-26T12:56:16.794Z,97730.03
2022-10-26T12:59:33.726Z,97728.75
2022-10-26T13:03:28.941Z,97744.41
2022-10-26T13:06:48.318Z,97758.75
2022-10-26T13:10:12.602Z,97756.22
2022-10-26T13:13:22.827Z,97765.59
2022-10-26T13:16:26.295Z,97773.50
2022-10-26T13:19:45.015Z,97764.97
2022-10-26T13:22:47.701Z,97762.97
2022-10-26T13:26:07.909Z,97767.75
2022-10-26T13:29:09.952Z,97770.53
2022-10-26T13:32:12.191Z,97782.38
2022-10-26T13:35:14.578Z,97783.78
2022-10-26T13:38:19.163Z,97820.19
2022-10-26T13:41:34.190Z,97804.03
2022-10-26T13:44:36.113Z,97820.81
2022-10-26T13:48:06.305Z,97803.22
2022-10-26T13:51:21.165Z,97802.56
2022-10-26T13:54:40.057Z,97807.69
2022-10-26T13:58:09.638Z,97812.22
2022-10-26T14:01:16.698Z,97814.25
2022-10-26T14:04:29.073Z,97831.88
2022-10-26T14:08:03.635Z,97815.00
2022-10-26T14:11:05.873Z,97821.88
2022-10-26T14:14:13.631Z,97833.19
2022-10-26T14:17:22.964Z,97825.19
2022-10-26T14:20:25.597Z,97832.69
2022-10-26T14:23:38.167Z,97834.91
2022-10-26T14:26:41.042Z,97841.94
2022-10-26T14:29:46.902Z,97846.44
2022-10-26T14:32:53.031Z,97859.13
2022-10-26T14:35:55.330Z,97863.22
2022-10-26T14:39:05.565Z,97864.09
2022-10-26T14:42:40.631Z,97863.94
2022-10-26T14:45:49.536Z,97862.25
2022-10-26T14:48:59.445Z,97861.75
2022-10-26T14:52:06.256Z,97849.81
2022-10-26T14:55:14.598Z,97858.13
2022-10-26T14:58:30.551Z,97851.66
2022-10-26T15:01:35.674Z,97854.09
2022-10-26T15:04:40.614Z,97861.63
2022-10-26T15:07:44.619Z,97870.38
2022-10-26T15:10:47.528Z,97871.22
2022-10-26T15:13:49.609Z,97879.09
2022-10-26T15:16:56.926Z,97866.78
2022-10-26T15:20:03.749Z,97853.50
2022-10-26T15:23:06.156Z,97873.75
2022-10-26T15:26:10.684Z,97862.22
2022-10-26T15:29:45.461Z,97876.16
2022-10-26T15:32:47.690Z,97870.50
2022-10-26T15:35:49.814Z,97861.16
2022-10-26T15:38:52.100Z,97872.81
2022-10-26T15:41:54.417Z,97888.28
2022-10-26T15:44:56.499Z,97889.94
2022-10-26T15:47:59.634Z,97876.16
2022-10-26T15:51:01.670Z,97882.19
2022-10-26T15:54:04.681Z,97895.47
2022-10-26T15:57:09.081Z,97889.69
2022-10-26T16:00:16.089Z,97901.34
2022-10-26T16:03:23.160Z,97894.94
2022-10-26T16:06:34.984Z,97894.28
2022-10-26T16:09:37.077Z,97918.91
2022-10-26T16:12:39.369Z,97912.97
2022-10-26T16:15:41.720Z,97924.41
2022-10-26T16:18:44.057Z,97943.28
2022-10-26T16:21:46.163Z,97943.00
2022-10-26T16:24:48.255Z,97962.16
2022-10-26T16:27:50.817Z,97936.50
2022-10-26T16:30:59.270Z,97925.97
2022-10-26T16:34:04.102Z,97964.53
2022-10-26T16:37:06.582Z,97947.13
2022-10-26T16:40:09.315Z,97954.16
2022-10-26T16:43:11.556Z,97951.84
2022-10-26T16:46:18.913Z,97988.56
2022-10-26T16:49:20.974Z,97983.47
2022-10-26T16:52:23.013Z,97981.38
2022-10-26T16:55:25.112Z,97973.06
2022-10-26T16:58:27.158Z,97974.72
2022-10-26T17:01:29.452Z,97975.22
2022-10-26T17:04:31.594Z,97968.31
2022-10-26T17:07:33.694Z,97969.38
2022-10-26T17:10:35.778Z,97985.78
2022-10-26T17:13:38.523Z,97985.59
2022-10-26T17:16:40.578Z,97996.75
2022-10-26T17:19:42.708Z,98005.00
2022-10-26T17:22:44.833Z,98010.34
2022-10-26T17:25:47.025Z,98006.59
2022-10-26T17:28:53.495Z,98005.84
2022-10-26T17:31:55.595Z,98018.13
2022-10-26T17:34:57.687Z,98017.78
2022-10-26T17:37:59.939Z,98018.13
2022-10-26T17:41:08.015Z,98027.19
2022-10-26T17:44:10.083Z,98046.06
2022-10-26T17:47:12.196Z,98039.97
2022-10-26T17:50:14.273Z,98047.66
2022-10-26T17:53:16.303Z,98047.97
2022-10-26T17:56:26.772Z,98048.47
2022-10-26T17:59:29.024Z,98066.84
2022-10-26T18:02:31.419Z,98065.78
2022-10-26T18:05:33.638Z,98066.84
2022-10-26T18:08:39.390Z,98077.75
2022-10-26T18:11:41.416Z,98091.31
2022-10-26T18:14:43.571Z,98098.50
2022-10-26T18:17:49.843Z,98097.69
2022-10-26T18:20:51.901Z,98084.94
2022-10-26T18:23:54.268Z,98101.16
2022-10-26T18:26:56.398Z,98103.81
2022-10-26T18:29:58.443Z,98123.22
2022-10-26T18:33:00.631Z,98118.69
2022-10-26T18:36:10.082Z,98120.56
2022-10-26T18:39:12.235Z,98117.66
2022-10-26T18:42:14.544Z,98125.38
2022-10-26T18:45:16.808Z,98134.97
2022-10-26T18:48:19.170Z,98135.75
2022-10-26T18:51:28.734Z,98122.69
2022-10-26T18:54:31.774Z,98134.94
2022-10-26T18:57:34.292Z,98150.38
2022-10-26T19:00:40.044Z,98160.75
2022-10-26T19:03:42.342Z,98171.66
2022-10-26T19:06:47.401Z,98169.28
2022-10-26T19:09:49.532Z,98192.97
2022-10-26T19:12:51.922Z,98202.00
2022-10-26T19:16:21.702Z,98190.56
2022-10-26T19:19:29.022Z,98196.41
2022-10-26T19:22:31.171Z,98214.78
2022-10-26T19:25:33.269Z,98215.06
2022-10-26T19:28:36.349Z,98214.81
2022-10-26T19:31:38.471Z,98223.53
2022-10-26T19:34:41.112Z,98232.63
2022-10-26T19:37:43.322Z,98251.00
2022-10-26T19:40:45.483Z,98252.84
2022-10-26T19:43:47.624Z,98249.94
2022-10-26T19:46:49.770Z,98256.84
2022-10-26T19:49:51.806Z,98264.84
2022-10-26T19:52:53.858Z,98266.44
2022-10-26T19:55:58.027Z,98260.31
2022-10-26T19:59:00.997Z,98261.88
2022-10-26T20:02:03.056Z,98262.69
2022-10-26T20:05:05.559Z,98267.47
2022-10-26T20:08:08.445Z,98248.88
2022-10-26T20:11:14.634Z,98262.19
2022-10-26T20:14:17.913Z,98272.50
2022-10-26T20:17:19.952Z,98285.31
2022-10-26T20:20:21.984Z,98294.94
2022-10-26T20:23:24.119Z,98293.63
2022-10-26T20:26:28.233Z,98315.41
2022-10-26T20:29:30.744Z,98310.09
2022-10-26T20:32:32.782Z,98321.13
2022-10-26T20:35:34.802Z,98314.63
2022-10-26T20:38:37.172Z,98334.38
2022-10-26T20:41:43.386Z,98345.06
2022-10-26T20:44:45.430Z,98339.50
2022-10-26T20:47:48.055Z,98349.41
2022-10-26T20:50:55.336Z,98357.34
2022-10-26T20:54:37.956Z,98360.88
2022-10-26T20:57:39.999Z,98375.72
2022-10-26T21:00:46.615Z,98370.47
2022-10-26T21:03:48.707Z,98364.94
2022-10-26T21:06:50.797Z,98364.88
2022-10-26T21:09:52.972Z,98358.44
2022-10-26T21:12:55.021Z,98362.16
2022-10-26T21:15:57.082Z,98371.47
2022-10-26T21:19:00.303Z,98372.03
2022-10-26T21:22:02.671Z,98387.09
2022-10-26T21:25:05.052Z,98389.84
2022-10-26T21:28:07.096Z,98392.97
2022-10-26T21:31:12.209Z,98391.09
2022-10-26T21:34:14.306Z,98394.09
2022-10-26T21:37:16.370Z,98394.31
2022-10-26T21:40:18.399Z,98403.13
2022-10-26T21:43:20.449Z,98414.09
2022-10-26T21:46:22.505Z,98404.94
2022-10-26T21:49:24.541Z,98416.38
2022-10-26T21:52:26.690Z,98408.94
2022-10-26T21:55:28.734Z,98410.72
2022-10-26T21:58:30.987Z,98412.34
2022-10-26T22:01:33.178Z,98418.22
2022-10-26T22:04:35.301Z,98425.63
2022-10-26T22:07:37.374Z,98425.25
2022-10-26T22:10:39.407Z,98431.22
2022-10-26T22:13:41.563Z,98440.19
2022-10-26T22:16:43.722Z,98439.72
2022-10-26T22:19:45.762Z,98432.53
2022-10-26T22:22:47.804Z,98441.88
2022-10-26T22:25:49.881Z,98443.59
2022-10-26T22:28:54.715Z,98447.66
2022-10-26T22:31:56.771Z,98448.97
2022-10-26T22:35:10.871Z,98439.34
2022-10-26T22:38:20.859Z,98435.91
2022-10-26T22:41:23.396Z,98437.63
2022-10-26T22:44:25.577Z,98435.97
2022-10-26T22:47:28.305Z,98432.47
2022-10-26T22:50:30.372Z,98417.66
2022-10-26T22:53:32.522Z,98415.69
2022-10-26T22:56:36.158Z,98417.53
2022-10-26T22:59:38.163Z,98415.38
2022-10-26T23:02:40.190Z,98420.28
2022-10-26T23:05:48.366Z,98421.03
2022-10-26T23:08:50.458Z,98427.81
2022-10-26T23:11:52.511Z,98430.09
2022-10-26T23:14:54.574Z,98442.75
2022-10-26T23:17:56.654Z,98444.88
2022-10-26T23:20:58.932Z,98458.59
2022-10-26T23:24:01.018Z,98446.13
2022-10-26T23:27:03.188Z,98467.06
2022-10-26T23:30:05.950Z,98461.16
2022-10-26T23:33:07.998Z,98470.53
2022-10-26T23:36:10.252Z,98473.59
2022-10-26T23:39:12.304Z,98477.84
2022-10-26T23:42:14.364Z,98478.94
2022-10-26T23:45:16.482Z,98486.91
2022-10-26T23:48:19.414Z,98481.00
2022-10-26T23:51:21.486Z,98490.59
2022-10-26T23:54:23.567Z,98500.41
2022-10-26T23:57:25.769Z,98495.34
